createdAt,value
2019-04-25T00:00:22.381Z,2.40
2019-04-25T00:01:22.302Z,2.20
2019-04-25T00:02:22.296Z,1.90
2019-04-25T00:03:22.394Z,1.80
2019-04-25T00:04:22.274Z,1.60
2019-04-25T00:05:22.261Z,2.20
2019-04-25T00:06:23.073Z,1.70
2019-04-25T00:07:22.240Z,1.80
2019-04-25T00:08:22.240Z,1.90
2019-04-25T00:09:22.241Z,2.00
2019-04-25T00:10:22.201Z,1.80
2019-04-25T00:11:22.197Z,2.00
2019-04-25T00:12:22.372Z,2.30
2019-04-25T00:13:22.180Z,1.90
2019-04-25T00:14:22.601Z,1.80
2019-04-25T00:15:22.412Z,1.90
2019-04-25T00:16:22.146Z,1.60
2019-04-25T00:17:22.152Z,1.80
2019-04-25T00:18:23.358Z,1.70
2019-04-25T00:19:22.116Z,1.40
2019-04-25T00:20:22.110Z,1.50
2019-04-25T00:21:22.112Z,1.60
2019-04-25T00:22:22.085Z,1.30
2019-04-25T00:23:22.108Z,1.40
2019-04-25T00:24:23.792Z,1.20
2019-04-25T00:25:22.079Z,1.30
2019-04-25T00:26:22.032Z,1.20
2019-04-25T00:27:23.748Z,1.20
2019-04-25T00:28:22.013Z,1.20
2019-04-25T00:29:22.192Z,1.20
2019-04-25T00:30:22.566Z,1.20
2019-04-25T00:31:22.115Z,1.30
2019-04-25T00:32:21.978Z,1.20
2019-04-25T00:33:21.953Z,1.10
2019-04-25T00:34:21.945Z,1.00
2019-04-25T00:35:21.952Z,1.00
2019-04-25T00:36:21.919Z,1.20
2019-04-25T00:37:22.572Z,1.30
2019-04-25T00:38:22.253Z,0.90
2019-04-25T00:39:21.890Z,1.20
2019-04-25T00:40:21.998Z,1.00
2019-04-25T00:41:21.889Z,1.00
2019-04-25T00:42:23.214Z,1.20
2019-04-25T00:43:21.846Z,1.10
2019-04-25T00:44:21.981Z,1.20
2019-04-25T00:45:22.295Z,1.30
2019-04-25T00:46:22.519Z,1.10
2019-04-25T00:47:21.802Z,1.30
2019-04-25T00:48:22.345Z,1.10
2019-04-25T00:49:22.070Z,1.20
2019-04-25T00:50:22.006Z,1.20
2019-04-25T00:51:21.857Z,1.10
2019-04-25T00:52:22.830Z,1.20
2019-04-25T00:53:21.765Z,1.30
2019-04-25T00:54:22.666Z,1.50
2019-04-25T00:55:28.500Z,1.60
2019-04-25T00:56:22.745Z,1.30
2019-04-25T00:57:22.070Z,1.20
2019-04-25T00:58:21.689Z,1.20
2019-04-25T00:59:22.114Z,1.50
2019-04-25T01:00:21.724Z,1.50
2019-04-25T01:01:21.860Z,1.80
2019-04-25T01:02:21.702Z,1.50
2019-04-25T01:03:21.637Z,1.50
2019-04-25T01:04:21.842Z,1.20
2019-04-25T01:05:21.704Z,1.70
2019-04-25T01:06:22.061Z,1.50
2019-04-25T01:07:22.409Z,2.50
2019-04-25T01:08:21.999Z,2.20
2019-04-25T01:09:22.247Z,2.20
2019-04-25T01:10:23.068Z,1.90
2019-04-25T01:11:21.595Z,1.90
2019-04-25T01:12:21.670Z,2.10
2019-04-25T01:13:22.333Z,2.00
2019-04-25T01:14:21.885Z,2.00
2019-04-25T01:15:21.517Z,2.10
2019-04-25T01:16:22.047Z,2.10
2019-04-25T01:17:22.882Z,2.30
2019-04-25T01:18:23.053Z,2.20
2019-04-25T01:19:21.478Z,2.30
2019-04-25T01:20:21.482Z,2.60
2019-04-25T01:21:21.454Z,2.30
2019-04-25T01:22:21.460Z,2.00
2019-04-25T01:23:21.416Z,2.30
2019-04-25T01:24:21.411Z,1.80
2019-04-25T01:25:21.422Z,1.90
2019-04-25T01:26:21.430Z,1.90
2019-04-25T01:27:21.376Z,1.70
2019-04-25T01:28:21.361Z,2.20
2019-04-25T01:29:21.365Z,2.20
2019-04-25T01:30:21.353Z,1.70
2019-04-25T01:31:21.354Z,2.20
2019-04-25T01:32:21.358Z,2.00
2019-04-25T01:33:21.313Z,2.20
2019-04-25T01:34:21.316Z,1.90
2019-04-25T01:35:21.287Z,1.90
2019-04-25T01:36:21.297Z,2.10
2019-04-25T01:37:21.262Z,2.30
2019-04-25T01:38:21.293Z,1.90
2019-04-25T01:39:21.269Z,2.10
2019-04-25T01:40:21.238Z,2.10
2019-04-25T01:41:21.237Z,2.00
2019-04-25T01:42:21.221Z,2.10
2019-04-25T01:43:21.200Z,2.20
2019-04-25T01:44:21.211Z,2.20
2019-04-25T01:45:21.184Z,2.20
2019-04-25T01:46:21.175Z,2.80
2019-04-25T01:47:21.155Z,2.20
2019-04-25T01:48:21.162Z,2.50
2019-04-25T01:49:21.151Z,2.50
2019-04-25T01:50:21.170Z,2.60
2019-04-25T01:51:21.121Z,2.40
2019-04-25T01:52:21.113Z,2.10
2019-04-25T01:53:21.138Z,2.30
2019-04-25T01:54:21.103Z,2.70
2019-04-25T01:55:21.108Z,2.50
2019-04-25T01:56:21.105Z,2.70
2019-04-25T01:57:21.059Z,3.00
2019-04-25T01:58:21.047Z,3.40
2019-04-25T01:59:21.033Z,3.20
2019-04-25T02:00:21.045Z,3.20
2019-04-25T02:01:21.012Z,3.60
2019-04-25T02:02:21.087Z,3.20
2019-04-25T02:03:21.002Z,4.00
2019-04-25T02:04:20.972Z,4.60
2019-04-25T02:05:20.974Z,4.00
2019-04-25T02:06:20.980Z,4.50
2019-04-25T02:07:20.971Z,5.40
2019-04-25T02:08:20.982Z,5.30
2019-04-25T02:09:20.939Z,5.00
2019-04-25T02:10:20.919Z,6.10
2019-04-25T02:11:20.910Z,6.10
2019-04-25T02:12:20.899Z,6.90
2019-04-25T02:13:20.878Z,6.60
2019-04-25T02:14:20.913Z,6.90
2019-04-25T02:15:20.864Z,7.30
2019-04-25T02:16:20.846Z,7.40
2019-04-25T02:17:20.840Z,7.20
2019-04-25T02:18:20.841Z,7.60
2019-04-25T02:19:20.870Z,7.50
2019-04-25T02:20:20.810Z,8.40
2019-04-25T02:21:20.803Z,7.50
2019-04-25T02:22:20.799Z,8.50
2019-04-25T02:23:20.776Z,8.90
2019-04-25T02:24:20.771Z,9.00
2019-04-25T02:25:20.806Z,9.30
2019-04-25T02:26:20.744Z,9.90
2019-04-25T02:27:20.739Z,9.70
2019-04-25T02:28:20.734Z,9.30
2019-04-25T02:29:20.733Z,9.30
2019-04-25T02:30:20.724Z,9.70
2019-04-25T02:31:20.705Z,10.30
2019-04-25T02:32:20.681Z,10.70
2019-04-25T02:33:20.681Z,10.90
2019-04-25T02:34:20.673Z,11.30
2019-04-25T02:35:20.696Z,11.10
2019-04-25T02:36:20.644Z,11.00
2019-04-25T02:37:20.642Z,12.10
2019-04-25T02:38:20.620Z,10.90
2019-04-25T02:39:20.613Z,11.90
2019-04-25T02:40:20.603Z,11.70
2019-04-25T02:41:20.672Z,12.10
2019-04-25T02:42:20.594Z,12.40
2019-04-25T02:43:20.580Z,13.00
2019-04-25T02:44:20.555Z,13.10
2019-04-25T02:45:20.546Z,12.40
2019-04-25T02:46:20.542Z,13.40
2019-04-25T02:47:20.565Z,13.20
2019-04-25T02:48:20.519Z,13.60
2019-04-25T02:49:34.040Z,13.70
2019-04-25T02:50:21.497Z,12.90
2019-04-25T02:51:20.494Z,14.40
2019-04-25T02:52:20.497Z,14.50
2019-04-25T02:53:20.481Z,13.10
2019-04-25T02:54:20.468Z,15.10
2019-04-25T02:55:30.974Z,14.80
2019-04-25T02:56:31.170Z,14.60
2019-04-25T02:57:21.418Z,14.80
2019-04-25T02:58:20.415Z,15.90
2019-04-25T02:59:20.471Z,14.60
2019-04-25T03:00:20.380Z,15.00
2019-04-25T03:01:23.458Z,15.50
2019-04-25T03:02:21.359Z,15.90
2019-04-25T03:03:20.362Z,15.10
2019-04-25T03:04:20.349Z,16.00
2019-04-25T03:05:20.379Z,15.20
2019-04-25T03:06:20.319Z,16.60
2019-04-25T03:07:20.323Z,15.90
2019-04-25T03:08:20.307Z,14.20
2019-04-25T03:09:20.319Z,15.10
2019-04-25T03:10:20.275Z,16.50
2019-04-25T03:11:20.398Z,15.50
2019-04-25T03:12:30.569Z,16.20
2019-04-25T03:13:21.268Z,16.30
2019-04-25T03:14:20.253Z,15.90
2019-04-25T03:15:20.255Z,16.10
2019-04-25T03:16:20.249Z,17.10
2019-04-25T03:17:20.245Z,14.90
2019-04-25T03:18:20.199Z,15.30
2019-04-25T03:19:20.190Z,15.60
2019-04-25T03:20:20.210Z,16.30
2019-04-25T03:21:20.160Z,16.40
2019-04-25T03:22:20.217Z,17.00
2019-04-25T03:23:20.139Z,16.10
2019-04-25T03:24:20.127Z,16.90
2019-04-25T03:25:20.120Z,15.00
2019-04-25T03:26:20.109Z,16.00
2019-04-25T03:27:20.097Z,16.50
2019-04-25T03:28:20.130Z,16.00
2019-04-25T03:29:20.087Z,16.40
2019-04-25T03:30:20.064Z,16.80
2019-04-25T03:31:23.093Z,15.90
2019-04-25T03:32:21.072Z,16.10
2019-04-25T03:33:20.132Z,16.80
2019-04-25T03:34:20.906Z,16.50
2019-04-25T03:35:20.001Z,15.70
2019-04-25T03:36:19.992Z,16.50
2019-04-25T03:37:20.001Z,16.30
2019-04-25T03:38:19.977Z,15.90
2019-04-25T03:39:19.974Z,16.10
2019-04-25T03:40:20.012Z,16.40
2019-04-25T03:41:19.998Z,16.80
2019-04-25T03:42:19.936Z,17.40
2019-04-25T03:43:19.924Z,16.30
2019-04-25T03:44:19.922Z,17.30
2019-04-25T03:45:19.908Z,17.30
2019-04-25T03:46:19.909Z,17.30
2019-04-25T03:47:19.880Z,18.00
2019-04-25T03:48:19.865Z,17.10
2019-04-25T03:49:19.870Z,18.00
2019-04-25T03:50:19.874Z,17.40
2019-04-25T03:51:19.838Z,18.70
2019-04-25T03:52:19.847Z,18.50
2019-04-25T03:53:19.830Z,18.50
2019-04-25T03:54:19.816Z,18.80
2019-04-25T03:55:19.794Z,18.60
2019-04-25T03:56:19.811Z,20.10
2019-04-25T03:57:19.799Z,20.90
2019-04-25T03:58:19.765Z,21.10
2019-04-25T03:59:19.749Z,22.40
2019-04-25T04:00:19.752Z,23.50
2019-04-25T04:01:19.738Z,25.30
2019-04-25T04:02:19.729Z,26.40
2019-04-25T04:03:19.739Z,28.40
2019-04-25T04:04:19.701Z,29.50
2019-04-25T04:05:19.690Z,33.10
2019-04-25T04:06:19.674Z,37.90
2019-04-25T04:07:19.679Z,35.80
2019-04-25T04:08:19.657Z,33.70
2019-04-25T04:09:19.662Z,34.00
2019-04-25T04:10:21.196Z,36.90
2019-04-25T04:11:19.621Z,35.40
2019-04-25T04:12:19.609Z,34.80
2019-04-25T04:13:19.608Z,32.70
2019-04-25T04:14:19.595Z,35.40
2019-04-25T04:15:19.613Z,35.30
2019-04-25T04:16:19.566Z,35.30
2019-04-25T04:17:19.559Z,33.10
2019-04-25T04:18:19.551Z,32.60
2019-04-25T04:19:19.531Z,34.90
2019-04-25T04:20:19.524Z,32.50
2019-04-25T04:21:19.532Z,33.20
2019-04-25T04:22:19.519Z,33.30
2019-04-25T04:23:19.499Z,33.30
2019-04-25T04:24:19.485Z,34.40
2019-04-25T04:25:19.491Z,30.50
2019-04-25T04:26:19.460Z,27.30
2019-04-25T04:27:19.472Z,27.80
2019-04-25T04:28:19.441Z,27.50
2019-04-25T04:29:19.432Z,26.30
2019-04-25T04:30:19.437Z,26.10
2019-04-25T04:31:19.402Z,24.50
2019-04-25T04:32:19.430Z,24.80
2019-04-25T04:33:29.766Z,24.20
2019-04-25T04:34:20.371Z,23.70
2019-04-25T04:35:19.384Z,23.40
2019-04-25T04:36:19.350Z,22.00
2019-04-25T04:37:19.340Z,22.70
2019-04-25T04:38:19.383Z,22.00
2019-04-25T04:39:19.323Z,22.80
2019-04-25T04:40:19.318Z,23.00
2019-04-25T04:41:19.297Z,21.10
2019-04-25T04:42:19.288Z,20.20
2019-04-25T04:43:19.286Z,18.70
2019-04-25T04:44:19.289Z,17.60
2019-04-25T04:45:19.254Z,17.10
2019-04-25T04:46:19.801Z,16.90
2019-04-25T04:47:19.238Z,17.50
2019-04-25T04:48:19.235Z,17.00
2019-04-25T04:49:19.218Z,17.30
2019-04-25T04:50:19.255Z,16.70
2019-04-25T04:51:19.199Z,16.40
2019-04-25T04:52:19.185Z,16.40
2019-04-25T04:53:19.179Z,16.80
2019-04-25T04:54:19.276Z,15.90
2019-04-25T04:55:19.756Z,16.10
2019-04-25T04:56:19.399Z,16.10
2019-04-25T04:57:28.903Z,14.60
2019-04-25T04:58:20.116Z,14.70
2019-04-25T04:59:19.113Z,13.90
2019-04-25T05:00:19.116Z,12.90
2019-04-25T05:01:19.163Z,12.60
2019-04-25T05:02:19.104Z,14.20
2019-04-25T05:03:19.063Z,12.90
2019-04-25T05:04:19.113Z,13.50
2019-04-25T05:05:19.144Z,13.90
2019-04-25T05:06:19.244Z,13.50
2019-04-25T05:07:19.533Z,14.70
2019-04-25T05:08:19.040Z,14.40
2019-04-25T05:09:19.791Z,15.70
2019-04-25T05:10:20.013Z,15.20
2019-04-25T05:11:19.856Z,15.40
2019-04-25T05:12:19.450Z,15.10
2019-04-25T05:13:19.756Z,15.50
2019-04-25T05:14:19.540Z,13.80
2019-04-25T05:15:19.173Z,13.70
2019-04-25T05:16:19.754Z,13.20
2019-04-25T05:17:19.683Z,13.70
2019-04-25T05:18:33.065Z,13.00
2019-04-25T05:19:19.962Z,11.90
2019-04-25T05:20:18.961Z,13.00
2019-04-25T05:21:18.876Z,12.30
2019-04-25T05:22:18.892Z,12.80
2019-04-25T05:23:18.901Z,13.00
2019-04-25T05:24:18.838Z,13.20
2019-04-25T05:25:19.172Z,12.00
2019-04-25T05:26:19.006Z,12.30
2019-04-25T05:27:33.717Z,12.30
2019-04-25T05:28:19.798Z,13.00
2019-04-25T05:29:21.339Z,11.90
2019-04-25T05:30:19.149Z,11.90
2019-04-25T05:31:19.276Z,10.70
2019-04-25T05:32:19.214Z,10.60
2019-04-25T05:33:21.174Z,11.10
2019-04-25T05:34:19.614Z,10.70
2019-04-25T05:35:18.774Z,17.00
2019-04-25T05:36:19.596Z,10.80
2019-04-25T05:37:19.642Z,10.30
2019-04-25T05:38:18.703Z,10.30
2019-04-25T05:39:19.450Z,10.70
2019-04-25T05:40:18.673Z,10.20
2019-04-25T05:41:18.671Z,9.90
2019-04-25T05:42:18.722Z,10.00
2019-04-25T05:43:18.673Z,9.50
2019-04-25T05:44:18.784Z,9.70
2019-04-25T05:45:19.867Z,8.80
2019-04-25T05:46:19.052Z,9.20
2019-04-25T05:47:21.136Z,10.40
2019-04-25T05:48:19.007Z,9.20
2019-04-25T05:49:19.459Z,8.20
2019-04-25T05:50:18.566Z,8.80
2019-04-25T05:51:19.465Z,8.50
2019-04-25T05:52:18.547Z,7.60
2019-04-25T05:53:18.536Z,7.00
2019-04-25T05:54:18.528Z,7.40
2019-04-25T05:55:19.889Z,7.40
2019-04-25T05:56:18.499Z,7.40
2019-04-25T05:57:18.510Z,8.30
2019-04-25T05:58:18.610Z,7.80
2019-04-25T05:59:19.471Z,8.80
2019-04-25T06:00:19.008Z,7.40
2019-04-25T06:01:18.878Z,7.90
2019-04-25T06:02:19.424Z,8.30
2019-04-25T06:03:18.768Z,8.70
2019-04-25T06:04:19.073Z,7.60
2019-04-25T06:05:19.068Z,8.10
2019-04-25T06:06:19.192Z,7.50
2019-04-25T06:07:19.310Z,6.10
2019-04-25T06:08:19.369Z,6.50
2019-04-25T06:09:19.303Z,6.50
2019-04-25T06:10:19.465Z,5.80
2019-04-25T06:11:19.576Z,6.30
2019-04-25T06:12:18.354Z,6.10
2019-04-25T06:13:18.321Z,5.90
2019-04-25T06:14:18.426Z,6.10
2019-04-25T06:15:18.460Z,6.60
2019-04-25T06:16:18.563Z,6.20
2019-04-25T06:17:19.974Z,5.80
2019-04-25T06:18:19.749Z,5.70
2019-04-25T06:19:20.617Z,5.70
2019-04-25T06:20:19.279Z,5.80
2019-04-25T06:21:19.157Z,5.50
2019-04-25T06:22:18.456Z,6.00
2019-04-25T06:23:18.922Z,6.70
2019-04-25T06:24:19.114Z,6.30
2019-04-25T06:25:18.210Z,6.10
2019-04-25T06:26:26.740Z,6.70
2019-04-25T06:27:19.712Z,7.20
2019-04-25T06:28:18.156Z,7.50
2019-04-25T06:29:18.177Z,7.00
2019-04-25T06:30:18.177Z,6.70
2019-04-25T06:31:19.718Z,7.30
2019-04-25T06:32:18.115Z,7.20
2019-04-25T06:33:18.162Z,6.10
2019-04-25T06:34:19.860Z,5.70
2019-04-25T06:35:18.106Z,5.10
2019-04-25T06:36:18.091Z,5.80
2019-04-25T06:37:18.066Z,6.00
2019-04-25T06:38:18.055Z,6.20
2019-04-25T06:39:18.041Z,6.10
2019-04-25T06:40:18.038Z,6.20
2019-04-25T06:41:18.049Z,5.80
2019-04-25T06:42:18.011Z,7.10
2019-04-25T06:43:18.020Z,6.50
2019-04-25T06:44:17.987Z,6.30
2019-04-25T06:45:17.987Z,6.60
2019-04-25T06:46:17.978Z,6.80
2019-04-25T06:47:17.990Z,7.30
2019-04-25T06:48:18.923Z,8.20
2019-04-25T06:49:17.938Z,13.30
2019-04-25T06:50:17.922Z,14.10
2019-04-25T06:51:17.912Z,10.80
2019-04-25T06:52:17.911Z,7.80
2019-04-25T06:53:17.918Z,7.60
2019-04-25T06:54:17.881Z,7.60
2019-04-25T06:55:17.890Z,6.20
2019-04-25T06:56:17.868Z,5.80
2019-04-25T06:57:17.856Z,5.90
2019-04-25T06:58:17.896Z,6.40
2019-04-25T06:59:17.915Z,5.60
2019-04-25T07:00:17.825Z,5.90
2019-04-25T07:01:17.823Z,6.20
2019-04-25T07:02:17.802Z,5.80
2019-04-25T07:03:17.788Z,5.60
2019-04-25T07:04:17.778Z,6.00
2019-04-25T07:05:26.541Z,5.30
2019-04-25T07:06:18.753Z,5.50
2019-04-25T07:07:17.777Z,5.90
2019-04-25T07:08:17.743Z,6.20
2019-04-25T07:09:17.744Z,5.80
2019-04-25T07:10:17.708Z,6.00
2019-04-25T07:11:17.736Z,5.70
2019-04-25T07:12:17.690Z,5.30
2019-04-25T07:13:17.682Z,5.60
2019-04-25T07:14:17.683Z,5.50
2019-04-25T07:15:17.663Z,5.00
2019-04-25T07:16:17.651Z,5.20
2019-04-25T07:17:17.678Z,5.50
2019-04-25T07:18:17.635Z,5.20
2019-04-25T07:19:17.703Z,5.10
2019-04-25T07:20:17.607Z,4.40
2019-04-25T07:21:17.603Z,5.50
2019-04-25T07:22:17.630Z,5.20
2019-04-25T07:23:17.601Z,4.90
2019-04-25T07:24:17.686Z,4.60
2019-04-25T07:25:17.550Z,4.10
2019-04-25T07:26:17.552Z,4.70
2019-04-25T07:27:17.564Z,4.70
2019-04-25T07:28:24.344Z,4.60
2019-04-25T07:29:18.547Z,4.70
2019-04-25T07:30:27.188Z,4.40
2019-04-25T07:31:18.493Z,4.30
2019-04-25T07:32:17.478Z,4.40
2019-04-25T07:33:17.469Z,4.10
2019-04-25T07:34:17.456Z,3.60
2019-04-25T07:35:17.509Z,3.90
2019-04-25T07:36:17.433Z,4.30
2019-04-25T07:37:17.421Z,4.20
2019-04-25T07:38:17.417Z,4.20
2019-04-25T07:39:17.401Z,3.60
2019-04-25T07:40:17.408Z,3.70
2019-04-25T07:41:17.412Z,4.20
2019-04-25T07:42:17.408Z,3.60
2019-04-25T07:43:17.388Z,3.70
2019-04-25T07:44:17.466Z,3.50
2019-04-25T07:45:17.434Z,3.00
2019-04-25T07:46:17.334Z,3.10
2019-04-25T07:47:17.368Z,2.70
2019-04-25T07:48:17.311Z,2.60
2019-04-25T07:49:17.325Z,2.70
2019-04-25T07:50:17.293Z,2.60
2019-04-25T07:51:17.278Z,2.70
2019-04-25T07:52:17.283Z,2.80
2019-04-25T07:53:17.271Z,2.70
2019-04-25T07:54:17.248Z,2.80
2019-04-25T07:55:17.268Z,2.90
2019-04-25T07:56:17.236Z,2.60
2019-04-25T07:57:17.235Z,2.80
2019-04-25T07:58:17.231Z,2.90
2019-04-25T07:59:17.189Z,2.70
2019-04-25T08:00:17.190Z,2.50
2019-04-25T08:01:17.163Z,2.80
2019-04-25T08:02:17.163Z,2.60
2019-04-25T08:03:17.142Z,3.00
2019-04-25T08:04:17.179Z,3.00
2019-04-25T08:05:17.127Z,2.90
2019-04-25T08:06:17.116Z,2.60
2019-04-25T08:07:17.107Z,2.50
2019-04-25T08:08:17.099Z,2.50
2019-04-25T08:09:17.079Z,2.50
2019-04-25T08:10:17.106Z,2.80
2019-04-25T08:11:17.097Z,2.70
2019-04-25T08:12:17.059Z,2.50
2019-04-25T08:13:17.047Z,2.40
2019-04-25T08:14:17.031Z,2.40
2019-04-25T08:15:17.034Z,2.60
2019-04-25T08:16:17.036Z,2.60
2019-04-25T08:17:16.997Z,2.60
2019-04-25T08:18:17.011Z,2.60
2019-04-25T08:19:16.977Z,2.50
2019-04-25T08:20:16.966Z,2.60
2019-04-25T08:21:16.952Z,2.70
2019-04-25T08:22:16.987Z,2.60
2019-04-25T08:23:16.947Z,2.40
2019-04-25T08:24:16.944Z,2.50
2019-04-25T08:25:16.912Z,2.50
2019-04-25T08:26:16.908Z,2.50
2019-04-25T08:27:16.927Z,3.10
2019-04-25T08:28:16.946Z,2.60
2019-04-25T08:29:16.883Z,4.10
2019-04-25T08:30:16.897Z,2.80
2019-04-25T08:31:16.851Z,3.10
2019-04-25T08:32:16.845Z,2.40
2019-04-25T08:33:16.904Z,2.30
2019-04-25T08:34:16.870Z,3.10
2019-04-25T08:35:16.821Z,2.30
2019-04-25T08:36:16.833Z,2.10
2019-04-25T08:37:20.331Z,3.00
2019-04-25T08:38:16.838Z,2.20
2019-04-25T08:39:16.795Z,2.30
2019-04-25T08:40:16.774Z,2.10
2019-04-25T08:41:16.751Z,2.20
2019-04-25T08:42:16.745Z,2.40
2019-04-25T08:43:16.719Z,2.30
2019-04-25T08:44:16.733Z,2.30
2019-04-25T08:45:16.697Z,2.20
2019-04-25T08:46:16.718Z,2.40
2019-04-25T08:47:16.684Z,2.90
2019-04-25T08:48:16.671Z,3.30
2019-04-25T08:49:16.661Z,4.90
2019-04-25T08:50:26.995Z,2.80
2019-04-25T08:51:17.684Z,2.40
2019-04-25T08:52:16.624Z,2.70
2019-04-25T08:53:16.617Z,4.40
2019-04-25T08:54:16.598Z,2.80
2019-04-25T08:55:16.609Z,3.10
2019-04-25T08:56:16.603Z,3.20
2019-04-25T08:57:16.600Z,3.50
2019-04-25T08:58:16.566Z,2.40
2019-04-25T08:59:16.567Z,3.10
2019-04-25T09:00:16.544Z,2.70
2019-04-25T09:01:16.527Z,2.30
2019-04-25T09:02:16.517Z,1.90
2019-04-25T09:03:16.534Z,2.30
2019-04-25T09:04:16.500Z,2.50
2019-04-25T09:05:16.489Z,2.00
2019-04-25T09:06:16.475Z,2.00
2019-04-25T09:07:16.491Z,2.00
2019-04-25T09:08:16.466Z,2.30
2019-04-25T09:09:16.444Z,2.10
2019-04-25T09:10:16.468Z,2.40
2019-04-25T09:11:16.491Z,2.30
2019-04-25T09:12:16.416Z,2.70
2019-04-25T09:13:16.420Z,2.30
2019-04-25T09:14:16.387Z,2.20
2019-04-25T09:15:16.382Z,2.00
2019-04-25T09:16:16.380Z,2.20
2019-04-25T09:17:16.377Z,2.10
2019-04-25T09:18:16.342Z,2.00
2019-04-25T09:19:16.349Z,2.10
2019-04-25T09:20:16.359Z,2.20
2019-04-25T09:21:16.323Z,1.90
2019-04-25T09:22:16.316Z,1.60
2019-04-25T09:23:16.318Z,1.80
2019-04-25T09:24:16.317Z,1.90
2019-04-25T09:25:16.282Z,2.00
2019-04-25T09:26:16.261Z,1.90
2019-04-25T09:27:16.254Z,2.10
2019-04-25T09:28:16.254Z,2.00
2019-04-25T09:29:19.609Z,2.00
2019-04-25T09:30:16.239Z,1.90
2019-04-25T09:31:16.211Z,1.60
2019-04-25T09:32:16.201Z,1.80
2019-04-25T09:33:16.183Z,2.00
2019-04-25T09:34:16.185Z,2.30
2019-04-25T09:35:16.170Z,2.20
2019-04-25T09:36:16.219Z,2.40
2019-04-25T09:37:16.149Z,2.30
2019-04-25T09:38:16.137Z,2.40
2019-04-25T09:39:16.127Z,2.60
2019-04-25T09:40:16.136Z,1.90
2019-04-25T09:41:16.102Z,1.80
2019-04-25T09:42:16.137Z,2.00
2019-04-25T09:43:16.080Z,1.90
2019-04-25T09:44:16.064Z,2.90
2019-04-25T09:45:16.082Z,3.10
2019-04-25T09:46:16.049Z,2.60
2019-04-25T09:47:16.035Z,2.20
2019-04-25T09:48:16.061Z,2.10
2019-04-25T09:49:16.060Z,2.40
2019-04-25T09:50:16.009Z,2.60
2019-04-25T09:51:15.999Z,2.00
2019-04-25T09:52:15.995Z,1.40
2019-04-25T09:53:23.340Z,2.20
2019-04-25T09:54:17.007Z,2.10
2019-04-25T09:55:15.972Z,2.40
2019-04-25T09:56:15.946Z,1.70
2019-04-25T09:57:15.929Z,2.00
2019-04-25T09:58:15.926Z,1.90
2019-04-25T09:59:26.697Z,2.30
2019-04-25T10:00:16.928Z,2.10
2019-04-25T10:01:15.911Z,2.40
2019-04-25T10:02:15.882Z,2.10
2019-04-25T10:03:15.868Z,2.30
2019-04-25T10:04:15.858Z,1.80
2019-04-25T10:05:15.847Z,1.90
2019-04-25T10:06:15.885Z,1.80
2019-04-25T10:07:15.825Z,2.10
2019-04-25T10:08:15.812Z,1.80
2019-04-25T10:09:15.814Z,2.40
2019-04-25T10:10:15.801Z,2.10
2019-04-25T10:11:16.033Z,2.80
2019-04-25T10:12:15.791Z,2.00
2019-04-25T10:13:15.754Z,1.90
2019-04-25T10:14:15.809Z,1.70
2019-04-25T10:15:15.784Z,1.70
2019-04-25T10:16:15.737Z,1.90
2019-04-25T10:17:15.723Z,1.70
2019-04-25T10:18:15.728Z,1.90
2019-04-25T10:19:15.716Z,1.80
2019-04-25T10:20:15.722Z,1.90
2019-04-25T10:21:15.702Z,1.80
2019-04-25T10:22:15.661Z,2.10
2019-04-25T10:23:15.753Z,1.90
2019-04-25T10:24:15.851Z,2.00
2019-04-25T10:25:15.625Z,1.90
2019-04-25T10:26:15.638Z,2.30
2019-04-25T10:27:15.627Z,1.80
2019-04-25T10:28:15.600Z,1.90
2019-04-25T10:29:15.637Z,2.20
2019-04-25T10:30:19.652Z,2.80
2019-04-25T10:31:16.572Z,1.70
2019-04-25T10:32:15.550Z,1.80
2019-04-25T10:33:15.566Z,2.00
2019-04-25T10:34:15.533Z,1.90
2019-04-25T10:35:15.542Z,2.20
2019-04-25T10:36:15.544Z,1.90
2019-04-25T10:37:15.501Z,2.00
2019-04-25T10:38:15.509Z,1.90
2019-04-25T10:39:15.497Z,2.80
2019-04-25T10:40:15.473Z,2.70
2019-04-25T10:41:15.503Z,2.30
2019-04-25T10:42:15.446Z,2.70
2019-04-25T10:43:15.456Z,2.50
2019-04-25T10:44:15.492Z,2.50
2019-04-25T10:45:23.155Z,2.40
2019-04-25T10:46:16.433Z,2.10
2019-04-25T10:47:15.474Z,2.00
2019-04-25T10:48:15.378Z,1.80
2019-04-25T10:49:15.383Z,2.20
2019-04-25T10:50:15.366Z,2.40
2019-04-25T10:51:15.349Z,1.70
2019-04-25T10:52:15.679Z,1.90
2019-04-25T10:53:15.329Z,2.10
2019-04-25T10:54:15.389Z,2.50
2019-04-25T10:55:15.324Z,3.30
2019-04-25T10:56:15.297Z,3.00
2019-04-25T10:57:15.283Z,12.50
2019-04-25T10:58:15.318Z,3.90
2019-04-25T10:59:15.282Z,4.20
2019-04-25T11:00:15.295Z,3.70
2019-04-25T11:01:15.445Z,2.70
2019-04-25T11:02:15.327Z,2.80
2019-04-25T11:03:15.229Z,2.40
2019-04-25T11:04:15.257Z,6.80
2019-04-25T11:05:15.219Z,3.10
2019-04-25T11:06:15.215Z,3.90
2019-04-25T11:07:15.190Z,3.20
2019-04-25T11:08:16.904Z,2.20
2019-04-25T11:09:15.162Z,1.80
2019-04-25T11:10:15.186Z,2.20
2019-04-25T11:11:15.147Z,2.10
2019-04-25T11:12:15.152Z,2.30
2019-04-25T11:13:15.133Z,2.60
2019-04-25T11:14:15.163Z,2.70
2019-04-25T11:15:15.099Z,2.90
2019-04-25T11:16:15.134Z,3.20
2019-04-25T11:17:15.525Z,3.30
2019-04-25T11:18:15.262Z,1.90
2019-04-25T11:19:15.315Z,2.50
2019-04-25T11:20:15.086Z,4.80
2019-04-25T11:21:15.036Z,5.10
2019-04-25T11:22:15.580Z,3.80
2019-04-25T11:23:15.022Z,3.90
2019-04-25T11:24:15.029Z,3.80
2019-04-25T11:25:15.035Z,2.60
2019-04-25T11:26:14.980Z,5.60
2019-04-25T11:27:14.999Z,4.40
2019-04-25T11:28:14.959Z,5.70
2019-04-25T11:29:15.070Z,2.30
2019-04-25T11:30:14.945Z,2.30
2019-04-25T11:31:14.931Z,1.90
2019-04-25T11:32:14.973Z,2.30
2019-04-25T11:33:15.029Z,1.80
2019-04-25T11:34:14.931Z,1.90
2019-04-25T11:35:14.889Z,1.80
2019-04-25T11:36:14.875Z,1.80
2019-04-25T11:37:14.887Z,1.90
2019-04-25T11:38:14.868Z,1.90
2019-04-25T11:39:14.870Z,2.90
2019-04-25T11:40:14.840Z,2.70
2019-04-25T11:41:14.834Z,2.80
2019-04-25T11:42:15.064Z,2.40
2019-04-25T11:43:14.873Z,4.20
2019-04-25T11:44:14.803Z,2.10
2019-04-25T11:45:14.843Z,2.10
2019-04-25T11:46:14.787Z,5.80
2019-04-25T11:47:15.498Z,3.40
2019-04-25T11:48:14.758Z,2.70
2019-04-25T11:49:15.296Z,2.20
2019-04-25T11:50:14.734Z,2.10
2019-04-25T11:51:14.750Z,2.20
2019-04-25T11:52:21.424Z,1.80
2019-04-25T11:53:15.730Z,1.90
2019-04-25T11:54:14.697Z,1.30
2019-04-25T11:55:14.687Z,1.50
2019-04-25T11:56:14.671Z,1.30
2019-04-25T11:57:14.706Z,1.70
2019-04-25T11:58:14.653Z,1.50
2019-04-25T11:59:15.731Z,1.40
2019-04-25T12:00:21.954Z,1.30
2019-04-25T12:01:15.616Z,1.40
2019-04-25T12:02:14.634Z,1.40
2019-04-25T12:03:14.631Z,1.30
2019-04-25T12:04:14.882Z,1.80
2019-04-25T12:05:15.122Z,1.70
2019-04-25T12:06:14.614Z,2.20
2019-04-25T12:07:14.557Z,1.30
2019-04-25T12:08:14.556Z,1.50
2019-04-25T12:09:14.590Z,1.00
2019-04-25T12:10:14.528Z,1.10
2019-04-25T12:11:14.532Z,1.10
2019-04-25T12:12:14.757Z,1.10
2019-04-25T12:13:15.440Z,1.10
2019-04-25T12:14:14.946Z,1.10
2019-04-25T12:15:14.932Z,0.90
2019-04-25T12:16:14.548Z,1.20
2019-04-25T12:17:14.462Z,1.20
2019-04-25T12:18:14.445Z,1.10
2019-04-25T12:19:14.439Z,1.00
2019-04-25T12:20:14.428Z,1.20
2019-04-25T12:21:14.444Z,1.00
2019-04-25T12:22:14.416Z,1.00
2019-04-25T12:23:14.539Z,0.90
2019-04-25T12:24:14.399Z,1.10
2019-04-25T12:25:15.087Z,1.20
2019-04-25T12:26:14.365Z,1.10
2019-04-25T12:27:14.383Z,1.10
2019-04-25T12:28:14.347Z,1.30
2019-04-25T12:29:14.488Z,1.20
2019-04-25T12:30:14.369Z,1.20
2019-04-25T12:31:14.818Z,1.20
2019-04-25T12:32:14.286Z,1.20
2019-04-25T12:33:21.117Z,1.20
2019-04-25T12:34:15.283Z,1.10
2019-04-25T12:35:14.329Z,1.30
2019-04-25T12:36:14.267Z,1.10
2019-04-25T12:37:14.246Z,1.40
2019-04-25T12:38:14.252Z,1.30
2019-04-25T12:39:14.250Z,1.40
2019-04-25T12:40:14.239Z,1.30
2019-04-25T12:41:14.204Z,1.60
2019-04-25T12:42:14.496Z,1.10
2019-04-25T12:43:14.183Z,1.50
2019-04-25T12:44:14.176Z,1.30
2019-04-25T12:45:14.256Z,1.30
2019-04-25T12:46:14.143Z,1.50
2019-04-25T12:47:14.139Z,1.50
2019-04-25T12:48:14.546Z,1.50
2019-04-25T12:49:15.232Z,1.60
2019-04-25T12:50:14.431Z,1.70
2019-04-25T12:51:14.118Z,1.50
2019-04-25T12:52:14.087Z,1.10
2019-04-25T12:53:14.070Z,1.10
2019-04-25T12:54:14.060Z,1.20
2019-04-25T12:55:14.057Z,1.20
2019-04-25T12:56:14.094Z,1.40
2019-04-25T12:57:14.219Z,1.50
2019-04-25T12:58:14.048Z,1.70
2019-04-25T12:59:14.034Z,1.40
2019-04-25T13:00:14.095Z,1.40
2019-04-25T13:01:14.007Z,1.20
2019-04-25T13:02:14.000Z,1.60
2019-04-25T13:03:14.360Z,2.10
2019-04-25T13:04:14.014Z,2.70
2019-04-25T13:05:14.261Z,2.70
2019-04-25T13:06:15.728Z,2.00
2019-04-25T13:07:13.928Z,1.50
2019-04-25T13:08:14.417Z,1.40
2019-04-25T13:09:13.905Z,1.20
2019-04-25T13:10:15.401Z,1.20
2019-04-25T13:11:14.020Z,2.50